Terminal Aerodrome Forecast
Issued by NWS Louisville, KY

Home | Current Version | Previous Version | Graphics & Text | Print | Product List | Glossary On
Versions: 1 2 3 4 5 6 7 8 9 10 11 12 13 14 15
000
FTUS43 KLMK 300500
TAFBWG
TAF
KBWG 300520Z 3006/3106 22010KT P6SM VCSH BKN040
     FM300800 24006KT P6SM BKN040
     FM301000 30005KT P6SM SCT050
     FM301400 31007KT P6SM SCT250
     FM302300 VRB03KT P6SM SCT250=

USA.gov is the U.S. government's official web portal to all federal, state and local government web resources and services.